createdAt,value
2022-10-02T00:02:36.226Z,100017.56
2022-10-02T00:05:54.305Z,100000.84
2022-10-02T00:09:03.655Z,100016.72
2022-10-02T00:12:08.873Z,100044.44
2022-10-02T00:15:18.991Z,100050.75
2022-10-02T00:18:26.043Z,100040.91
2022-10-02T00:21:49.903Z,100050.16
2022-10-02T00:25:16.573Z,100037.09
2022-10-02T00:28:40.784Z,100027.75
2022-10-02T00:32:04.422Z,100014.47
2022-10-02T00:35:37.482Z,100028.25
2022-10-02T00:38:55.494Z,100033.69
2022-10-02T00:42:32.666Z,100030.09
2022-10-02T00:45:46.566Z,100026.34
2022-10-02T00:49:05.597Z,100026.88
2022-10-02T00:52:32.957Z,100032.84
2022-10-02T00:55:42.726Z,100017.44
2022-10-02T00:58:50.539Z,100031.66
2022-10-02T01:01:59.902Z,100026.63
2022-10-02T01:05:05.537Z,100025.69
2022-10-02T01:08:08.121Z,100032.22
2022-10-02T01:11:10.341Z,100033.50
2022-10-02T01:14:12.769Z,100019.28
2022-10-02T01:17:34.606Z,100031.59
2022-10-02T01:20:41.865Z,100023.44
2022-10-02T01:24:03.935Z,100031.34
2022-10-02T01:27:07.259Z,100028.53
2022-10-02T01:30:20.560Z,100022.47
2022-10-02T01:33:23.276Z,100022.47
2022-10-02T01:36:25.960Z,100014.41
2022-10-02T01:39:28.576Z,100024.72
2022-10-02T01:42:30.761Z,100032.44
2022-10-02T01:46:02.037Z,100032.44
2022-10-02T01:49:16.407Z,100038.81
2022-10-02T01:52:46.070Z,100044.75
2022-10-02T01:56:14.888Z,100038.69
2022-10-02T01:59:30.022Z,100005.63
2022-10-02T02:02:56.520Z,100026.25
2022-10-02T02:06:09.706Z,100020.19
2022-10-02T02:09:21.847Z,100014.38
2022-10-02T02:12:32.979Z,99999.56
2022-10-02T02:15:43.980Z,100013.34
2022-10-02T02:19:16.562Z,100007.91
2022-10-02T02:22:26.821Z,99999.72
2022-10-02T02:25:34.284Z,99995.72
2022-10-02T02:28:40.718Z,100005.19
2022-10-02T02:31:53.592Z,100023.53
2022-10-02T02:35:04.547Z,100010.00
2022-10-02T02:38:12.791Z,100008.47
2022-10-02T02:41:21.085Z,100015.25
2022-10-02T02:44:34.491Z,100016.06
2022-10-02T02:47:48.502Z,100027.53
2022-10-02T02:51:01.719Z,100024.72
2022-10-02T02:54:10.727Z,100031.69
2022-10-02T02:57:15.971Z,100024.69
2022-10-02T03:00:20.206Z,100030.72
2022-10-02T03:03:22.322Z,100026.88
2022-10-02T03:06:38.649Z,100028.41
2022-10-02T03:09:41.221Z,100020.03
2022-10-02T03:12:52.206Z,100034.97
2022-10-02T03:16:12.979Z,100032.16
2022-10-02T03:19:45.750Z,100038.22
2022-10-02T03:22:50.815Z,100033.22
2022-10-02T03:26:00.616Z,100025.25
2022-10-02T03:29:07.208Z,100032.75
2022-10-02T03:32:14.539Z,100016.06
2022-10-02T03:35:17.768Z,100039.59
2022-10-02T03:38:22.497Z,100045.66
2022-10-02T03:41:24.621Z,100032.75
2022-10-02T03:44:27.034Z,100039.94
2022-10-02T03:47:29.147Z,100038.97
2022-10-02T03:50:35.536Z,100031.28
2022-10-02T03:53:40.910Z,100040.41
2022-10-02T03:57:03.666Z,100048.13
2022-10-02T04:00:27.136Z,100043.75
2022-10-02T04:03:36.952Z,100063.81
2022-10-02T04:06:57.105Z,100048.50
2022-10-02T04:10:37.000Z,100095.16
2022-10-02T04:13:46.411Z,100082.50
2022-10-02T04:17:02.467Z,100099.91
2022-10-02T04:20:15.148Z,100104.16
2022-10-02T04:23:23.943Z,100125.47
2022-10-02T04:26:35.094Z,100125.56
2022-10-02T04:29:43.675Z,100130.66
2022-10-02T04:32:46.048Z,100141.44
2022-10-02T04:35:51.568Z,100145.53
2022-10-02T04:39:31.592Z,100138.13
2022-10-02T04:42:39.954Z,100169.88
2022-10-02T04:45:54.054Z,100174.28
2022-10-02T04:49:05.633Z,100183.66
2022-10-02T04:52:24.506Z,100181.75
2022-10-02T04:55:51.497Z,100195.75
2022-10-02T04:59:02.943Z,100193.88
2022-10-02T05:02:09.658Z,100193.19
2022-10-02T05:05:35.562Z,100197.75
2022-10-02T05:08:59.446Z,100196.88
2022-10-02T05:12:10.493Z,100199.22
2022-10-02T05:15:51.418Z,100204.50
2022-10-02T05:19:04.449Z,100228.38
2022-10-02T05:22:25.010Z,100239.81
2022-10-02T05:25:47.036Z,100236.84
2022-10-02T05:29:07.885Z,100236.63
2022-10-02T05:32:48.912Z,100240.41
2022-10-02T05:36:17.950Z,100246.84
2022-10-02T05:39:40.701Z,100252.75
2022-10-02T05:43:10.186Z,100253.88
2022-10-02T05:46:36.443Z,100249.66
2022-10-02T05:49:44.971Z,100257.38
2022-10-02T05:52:54.326Z,100276.81
2022-10-02T05:56:04.874Z,100289.06
2022-10-02T05:59:26.598Z,100285.81
2022-10-02T06:02:40.431Z,100297.25
2022-10-02T06:05:55.604Z,100281.47
2022-10-02T06:09:19.808Z,100293.59
2022-10-02T06:12:30.651Z,100315.09
2022-10-02T06:15:43.904Z,100314.84
2022-10-02T06:18:51.023Z,100320.09
2022-10-02T06:22:13.874Z,100337.03
2022-10-02T06:25:47.555Z,100350.59
2022-10-02T06:28:58.391Z,100359.97
2022-10-02T06:32:16.778Z,100371.41
2022-10-02T06:35:35.613Z,100380.25
2022-10-02T06:38:59.419Z,100395.91
2022-10-02T06:42:43.157Z,100399.94
2022-10-02T06:46:01.205Z,100385.34
2022-10-02T06:49:12.275Z,100408.41
2022-10-02T06:52:46.104Z,100405.63
2022-10-02T06:55:52.433Z,100396.69
2022-10-02T06:59:25.367Z,100410.34
2022-10-02T07:02:59.612Z,100426.88
2022-10-02T07:06:26.224Z,100422.19
2022-10-02T07:09:28.546Z,100434.00
2022-10-02T07:13:04.548Z,100418.53
2022-10-02T07:16:39.255Z,100457.81
2022-10-02T07:20:22.028Z,100437.97
2022-10-02T07:24:00.113Z,100450.41
2022-10-02T07:27:26.392Z,100451.16
2022-10-02T07:30:51.090Z,100444.13
2022-10-02T07:34:06.597Z,100448.97
2022-10-02T07:37:46.084Z,100453.59
2022-10-02T07:41:04.902Z,100459.25
2022-10-02T07:44:21.656Z,100463.13
2022-10-02T07:47:38.872Z,100463.97
2022-10-02T07:51:32.342Z,100475.75
2022-10-02T07:54:40.758Z,100445.28
2022-10-02T07:57:46.076Z,100471.00
2022-10-02T08:00:53.017Z,100458.66
2022-10-02T08:04:05.255Z,100473.72
2022-10-02T08:07:07.378Z,100465.09
2022-10-02T08:10:12.946Z,100474.25
2022-10-02T08:13:31.557Z,100468.91
2022-10-02T08:16:52.141Z,100446.53
2022-10-02T08:20:00.047Z,100481.72
2022-10-02T08:23:02.019Z,100475.81
2022-10-02T08:26:11.934Z,100476.09
2022-10-02T08:29:32.634Z,100479.75
2022-10-02T08:32:36.933Z,100470.88
2022-10-02T08:36:04.786Z,100465.88
2022-10-02T08:39:12.810Z,100474.69
2022-10-02T08:42:20.719Z,100476.72
2022-10-02T08:45:42.010Z,100481.09
2022-10-02T08:49:29.060Z,100477.78
2022-10-02T08:52:59.202Z,100465.44
2022-10-02T08:56:39.293Z,100459.66
2022-10-02T09:00:01.162Z,100472.03
2022-10-02T09:04:09.305Z,100476.34
2022-10-02T09:07:48.769Z,100468.16
2022-10-02T09:11:09.217Z,100466.41
2022-10-02T09:14:39.311Z,100477.63
2022-10-02T09:18:02.975Z,100479.44
2022-10-02T09:21:27.827Z,100459.06
2022-10-02T09:25:07.809Z,100457.94
2022-10-02T09:28:41.958Z,100467.25
2022-10-02T09:32:05.384Z,100451.94
2022-10-02T09:35:27.471Z,100459.47
2022-10-02T09:39:00.288Z,100449.75
2022-10-02T09:42:20.444Z,100450.28
2022-10-02T09:45:49.269Z,100451.56
2022-10-02T09:48:54.368Z,100452.19
2022-10-02T09:52:28.309Z,100450.91
2022-10-02T09:56:06.980Z,100437.53
2022-10-02T09:59:47.832Z,100437.47
2022-10-02T10:02:53.764Z,100433.22
2022-10-02T10:06:43.773Z,100429.66
2022-10-02T10:10:07.537Z,100430.88
2022-10-02T10:13:39.969Z,100423.38
2022-10-02T10:17:20.811Z,100407.69
2022-10-02T10:20:44.378Z,100417.00
2022-10-02T10:24:40.769Z,100417.13
2022-10-02T10:28:06.010Z,100437.28
2022-10-02T10:31:35.896Z,100438.94
2022-10-02T10:34:50.282Z,100444.03
2022-10-02T10:38:35.037Z,100439.19
2022-10-02T10:42:25.109Z,100441.91
2022-10-02T10:45:59.417Z,100454.13
2022-10-02T10:49:35.413Z,100469.13
2022-10-02T10:53:10.501Z,100468.38
2022-10-02T10:56:37.027Z,100465.34
2022-10-02T10:59:46.564Z,100460.84
2022-10-02T11:03:19.640Z,100461.09
2022-10-02T11:06:45.247Z,100456.09
2022-10-02T11:09:55.854Z,100447.84
2022-10-02T11:13:03.456Z,100444.31
2022-10-02T11:16:27.603Z,100459.47
2022-10-02T11:19:49.578Z,100446.34
2022-10-02T11:23:10.646Z,100447.03
2022-10-02T11:26:43.680Z,100430.72
2022-10-02T11:29:52.154Z,100439.94
2022-10-02T11:33:11.819Z,100446.38
2022-10-02T11:36:20.455Z,100427.22
2022-10-02T11:39:47.815Z,100449.38
2022-10-02T11:43:25.010Z,100452.16
2022-10-02T11:46:52.814Z,100448.09
2022-10-02T11:50:29.704Z,100460.03
2022-10-02T11:53:55.366Z,100467.75
2022-10-02T11:57:10.581Z,100462.16
2022-10-02T12:00:42.943Z,100460.84
2022-10-02T12:04:22.792Z,100464.59
2022-10-02T12:07:53.451Z,100456.16
2022-10-02T12:11:34.997Z,100450.06
2022-10-02T12:14:56.364Z,100461.66
2022-10-02T12:18:21.502Z,100463.09
2022-10-02T12:22:01.523Z,100474.63
2022-10-02T12:25:46.548Z,100464.88
2022-10-02T12:29:06.668Z,100449.31
2022-10-02T12:32:14.845Z,100465.09
2022-10-02T12:35:27.815Z,100444.44
2022-10-02T12:39:08.039Z,100448.13
2022-10-02T12:42:17.182Z,100443.63
2022-10-02T12:45:25.945Z,100442.19
2022-10-02T12:49:03.538Z,100440.03
2022-10-02T12:52:10.291Z,100436.94
2022-10-02T12:55:59.369Z,100435.16
2022-10-02T12:59:17.148Z,100432.06
2022-10-02T13:03:01.366Z,100423.53
2022-10-02T13:06:12.959Z,100440.03
2022-10-02T13:09:36.080Z,100426.19
2022-10-02T13:12:56.365Z,100439.59
2022-10-02T13:16:25.155Z,100450.31
2022-10-02T13:23:32.156Z,100437.19
2022-10-02T13:26:45.264Z,100427.78
2022-10-02T13:29:54.504Z,100430.38
2022-10-02T13:33:19.520Z,100435.94
2022-10-02T13:36:37.638Z,100448.63
2022-10-02T13:40:13.526Z,100459.28
2022-10-02T13:43:27.742Z,100462.34
2022-10-02T13:46:45.186Z,100453.91
2022-10-02T13:50:01.879Z,100458.16
2022-10-02T13:53:24.522Z,100469.16
2022-10-02T13:56:38.928Z,100472.59
2022-10-02T13:59:46.985Z,100478.59
2022-10-02T14:02:49.080Z,100488.00
2022-10-02T14:06:20.331Z,100508.94
2022-10-02T14:09:25.328Z,100537.47
2022-10-02T14:12:33.291Z,100571.03
2022-10-02T14:15:45.532Z,100585.19
2022-10-02T14:19:03.597Z,100579.75
2022-10-02T14:22:48.540Z,100586.38
2022-10-02T14:26:27.683Z,100564.78
2022-10-02T14:30:01.900Z,100532.88
2022-10-02T14:33:49.892Z,100573.16
2022-10-02T14:37:33.580Z,100577.22
2022-10-02T14:40:55.246Z,100564.75
2022-10-02T14:44:14.967Z,100572.31
2022-10-02T14:47:49.129Z,100550.50
2022-10-02T14:51:02.025Z,100542.16
2022-10-02T14:54:13.614Z,100542.63
2022-10-02T14:57:27.526Z,100557.25
2022-10-02T15:00:56.101Z,100548.53
2022-10-02T15:04:13.805Z,100557.09
2022-10-02T15:07:21.386Z,100570.06
2022-10-02T15:10:28.605Z,100583.47
2022-10-02T15:13:45.782Z,100581.81
2022-10-02T15:17:20.689Z,100564.47
2022-10-02T15:20:46.342Z,100558.44
2022-10-02T15:23:50.714Z,100548.84
2022-10-02T15:27:12.107Z,100549.16
2022-10-02T15:30:18.061Z,100550.22
2022-10-02T15:33:53.461Z,100542.78
2022-10-02T15:37:43.538Z,100551.03
2022-10-02T15:40:55.501Z,100559.50
2022-10-02T15:44:42.735Z,100566.06
2022-10-02T15:48:28.194Z,100557.81
2022-10-02T15:51:40.614Z,100562.38
2022-10-02T15:55:19.646Z,100578.09
2022-10-02T15:58:34.285Z,100578.78
2022-10-02T16:01:52.238Z,100575.53
2022-10-02T16:05:18.045Z,100586.72
2022-10-02T16:08:20.077Z,100586.34
2022-10-02T16:11:41.256Z,100572.22
2022-10-02T16:15:26.607Z,100577.47
2022-10-02T16:18:29.861Z,100583.19
2022-10-02T16:21:58.444Z,100588.63
2022-10-02T16:25:12.633Z,100588.47
2022-10-02T16:28:39.626Z,100592.03
2022-10-02T16:32:04.162Z,100574.69
2022-10-02T16:35:20.529Z,100596.28
2022-10-02T16:38:54.534Z,100586.28
2022-10-02T16:42:02.318Z,100597.03
2022-10-02T16:45:15.909Z,100581.16
2022-10-02T16:48:26.343Z,100589.78
2022-10-02T16:51:48.298Z,100598.97
2022-10-02T16:55:05.532Z,100591.03
2022-10-02T16:58:31.627Z,100596.28
2022-10-02T17:01:49.547Z,100589.00
2022-10-02T17:05:28.545Z,100605.13
2022-10-02T17:08:33.683Z,100600.56
2022-10-02T17:12:05.679Z,100594.94
2022-10-02T17:15:34.352Z,100610.84
2022-10-02T17:18:39.498Z,100602.06
2022-10-02T17:21:47.607Z,100599.13
2022-10-02T17:24:52.716Z,100599.31
2022-10-02T17:28:01.900Z,100609.81
2022-10-02T17:31:06.185Z,100608.53
2022-10-02T17:34:17.990Z,100602.28
2022-10-02T17:37:45.932Z,100607.72
2022-10-02T17:41:23.506Z,100608.78
2022-10-02T17:44:48.538Z,100606.66
2022-10-02T17:48:39.875Z,100607.06
2022-10-02T17:52:46.685Z,100603.09
2022-10-02T17:56:22.687Z,100601.22
2022-10-02T17:59:36.850Z,100591.38
2022-10-02T18:02:52.505Z,100600.44
2022-10-02T18:06:07.390Z,100587.28
2022-10-02T18:09:18.604Z,100595.88
2022-10-02T18:12:59.226Z,100603.22
2022-10-02T18:16:11.410Z,100605.09
2022-10-02T18:19:31.082Z,100593.97
2022-10-02T18:22:58.655Z,100588.53
2022-10-02T18:26:09.359Z,100597.75
2022-10-02T18:29:40.726Z,100602.78
2022-10-02T18:32:49.064Z,100595.88
2022-10-02T18:35:55.169Z,100599.66
2022-10-02T18:39:11.657Z,100588.78
2022-10-02T18:42:25.138Z,100598.81
2022-10-02T18:45:51.871Z,100605.94
2022-10-02T18:49:48.143Z,100606.34
2022-10-02T18:52:56.418Z,100600.25
2022-10-02T18:56:03.378Z,100589.59
2022-10-02T18:59:12.967Z,100589.19
2022-10-02T19:02:27.451Z,100588.31
2022-10-02T19:05:35.716Z,100585.81
2022-10-02T19:09:08.948Z,100592.13
2022-10-02T19:12:25.921Z,100593.41
2022-10-02T19:15:33.540Z,100587.75
2022-10-02T19:18:36.825Z,100589.84
2022-10-02T19:21:39.356Z,100591.53
2022-10-02T19:24:43.758Z,100601.38
2022-10-02T19:27:54.104Z,100601.56
2022-10-02T19:31:04.324Z,100592.16
2022-10-02T19:34:17.683Z,100590.44
2022-10-02T19:37:20.222Z,100584.41
2022-10-02T19:40:32.198Z,100592.13
2022-10-02T19:43:43.096Z,100582.53
2022-10-02T19:46:50.231Z,100569.34
2022-10-02T19:49:52.532Z,100578.56
2022-10-02T19:53:07.268Z,100583.13
2022-10-02T19:56:13.231Z,100576.69
2022-10-02T19:59:19.809Z,100587.34
2022-10-02T20:02:29.988Z,100593.81
2022-10-02T20:05:36.063Z,100590.44
2022-10-02T20:08:43.589Z,100577.94
2022-10-02T20:11:50.484Z,100597.41
2022-10-02T20:15:05.148Z,100582.09
2022-10-02T20:18:09.371Z,100575.59
2022-10-02T20:21:26.245Z,100571.22
2022-10-02T20:24:33.076Z,100579.56
2022-10-02T20:27:52.087Z,100587.72
2022-10-02T20:31:11.397Z,100579.78
2022-10-02T20:34:25.130Z,100593.34
2022-10-02T20:37:31.334Z,100591.88
2022-10-02T20:40:37.363Z,100590.84
2022-10-02T20:43:46.841Z,100596.91
2022-10-02T20:47:22.340Z,100602.31
2022-10-02T20:51:09.043Z,100590.19
2022-10-02T20:54:31.415Z,100603.53
2022-10-02T20:58:01.953Z,100602.03
2022-10-02T21:01:20.857Z,100597.63
2022-10-02T21:04:41.608Z,100596.63
2022-10-02T21:07:59.775Z,100593.91
2022-10-02T21:11:20.146Z,100592.03
2022-10-02T21:14:53.574Z,100586.59
2022-10-02T21:18:01.345Z,100595.59
2022-10-02T21:21:53.625Z,100593.91
2022-10-02T21:25:03.037Z,100599.16
2022-10-02T21:28:37.506Z,100591.63
2022-10-02T21:32:05.969Z,100589.94
2022-10-02T21:35:35.108Z,100593.91
2022-10-02T21:39:01.778Z,100590.16
2022-10-02T21:42:13.261Z,100593.91
2022-10-02T21:45:49.392Z,100589.94
2022-10-02T21:49:15.994Z,100594.75
2022-10-02T21:52:30.074Z,100579.91
2022-10-02T21:56:00.065Z,100585.94
2022-10-02T21:59:46.796Z,100579.47
2022-10-02T22:03:06.984Z,100581.59
2022-10-02T22:06:37.599Z,100583.66
2022-10-02T22:09:44.888Z,100570.50
2022-10-02T22:13:24.995Z,100579.50
2022-10-02T22:16:27.031Z,100579.72
2022-10-02T22:19:51.952Z,100574.28
2022-10-02T22:23:14.805Z,100568.63
2022-10-02T22:26:24.732Z,100571.97
2022-10-02T22:29:29.565Z,100572.81
2022-10-02T22:32:56.249Z,100574.47
2022-10-02T22:36:10.249Z,100569.47
2022-10-02T22:39:14.931Z,100571.34
2022-10-02T22:42:27.957Z,100570.31
2022-10-02T22:46:02.653Z,100565.91
2022-10-02T22:49:21.394Z,100564.47
2022-10-02T22:52:26.547Z,100565.06
2022-10-02T22:55:36.524Z,100556.09
2022-10-02T22:59:07.004Z,100548.78
2022-10-02T23:02:22.739Z,100551.91
2022-10-02T23:05:43.111Z,100557.38
2022-10-02T23:08:57.554Z,100557.19
2022-10-02T23:12:14.593Z,100551.94
2022-10-02T23:15:22.304Z,100552.78
2022-10-02T23:18:50.712Z,100550.03
2022-10-02T23:22:17.875Z,100547.31
2022-10-02T23:25:46.325Z,100544.19
2022-10-02T23:28:56.581Z,100542.91
2022-10-02T23:32:04.297Z,100549.41
2022-10-02T23:35:37.236Z,100556.94
2022-10-02T23:38:52.069Z,100559.84
2022-10-02T23:41:58.634Z,100548.78
2022-10-02T23:45:10.369Z,100538.94
2022-10-02T23:48:14.322Z,100529.69
2022-10-02T23:51:19.072Z,100552.75
2022-10-02T23:54:55.609Z,100556.47
2022-10-02T23:58:00.257Z,100561.53
